sensor_id;sensor_type;location;lat;lon;timestamp;temperature;humidity
81902;DHT22;71369;50.796;3.290;2023-07-31T00:00:13;17.30;83.90
81902;DHT22;71369;50.796;3.290;2023-07-31T00:02:39;17.30;83.50
81902;DHT22;71369;50.796;3.290;2023-07-31T00:05:05;17.40;83.30
81902;DHT22;71369;50.796;3.290;2023-07-31T00:07:32;17.40;83.20
81902;DHT22;71369;50.796;3.290;2023-07-31T00:09:57;17.40;83.30
81902;DHT22;71369;50.796;3.290;2023-07-31T00:12:23;17.40;83.50
81902;DHT22;71369;50.796;3.290;2023-07-31T00:14:49;17.40;83.30
81902;DHT22;71369;50.796;3.290;2023-07-31T00:17:16;17.40;82.90
81902;DHT22;71369;50.796;3.290;2023-07-31T00:19:42;17.40;83.30
81902;DHT22;71369;50.796;3.290;2023-07-31T00:22:08;17.40;82.80
81902;DHT22;71369;50.796;3.290;2023-07-31T00:24:33;17.40;82.90
81902;DHT22;71369;50.796;3.290;2023-07-31T00:26:59;17.40;82.90
81902;DHT22;71369;50.796;3.290;2023-07-31T00:29:24;17.40;82.80
81902;DHT22;71369;50.796;3.290;2023-07-31T00:31:50;17.40;82.80
81902;DHT22;71369;50.796;3.290;2023-07-31T00:34:16;17.40;82.80
81902;DHT22;71369;50.796;3.290;2023-07-31T00:36:41;17.40;82.50
81902;DHT22;71369;50.796;3.290;2023-07-31T00:39:07;17.50;82.50
81902;DHT22;71369;50.796;3.290;2023-07-31T00:41:33;17.50;81.80
81902;DHT22;71369;50.796;3.290;2023-07-31T00:43:58;17.40;81.70
81902;DHT22;71369;50.796;3.290;2023-07-31T00:46:24;17.50;82.00
81902;DHT22;71369;50.796;3.290;2023-07-31T00:48:50;17.40;82.50
81902;DHT22;71369;50.796;3.290;2023-07-31T00:51:16;17.50;83.60
81902;DHT22;71369;50.796;3.290;2023-07-31T00:53:43;17.50;82.50
81902;DHT22;71369;50.796;3.290;2023-07-31T00:56:10;17.60;82.10
81902;DHT22;71369;50.796;3.290;2023-07-31T00:58:36;17.50;81.70
81902;DHT22;71369;50.796;3.290;2023-07-31T01:01:02;17.60;81.50
81902;DHT22;71369;50.796;3.290;2023-07-31T01:03:28;17.60;82.00
81902;DHT22;71369;50.796;3.290;2023-07-31T01:08:51;17.60;82.20
81902;DHT22;71369;50.796;3.290;2023-07-31T01:11:29;17.60;82.40
81902;DHT22;71369;50.796;3.290;2023-07-31T01:13:55;17.70;82.40
81902;DHT22;71369;50.796;3.290;2023-07-31T01:16:22;17.70;82.30
81902;DHT22;71369;50.796;3.290;2023-07-31T01:18:47;17.70;82.50
81902;DHT22;71369;50.796;3.290;2023-07-31T01:27:06;17.60;83.20
81902;DHT22;71369;50.796;3.290;2023-07-31T01:29:49;17.70;83.30
81902;DHT22;71369;50.796;3.290;2023-07-31T01:32:18;17.70;83.40
81902;DHT22;71369;50.796;3.290;2023-07-31T01:34:45;17.70;83.60
81902;DHT22;71369;50.796;3.290;2023-07-31T01:37:12;17.80;83.30
81902;DHT22;71369;50.796;3.290;2023-07-31T01:39:37;17.90;83.30
81902;DHT22;71369;50.796;3.290;2023-07-31T01:42:03;17.90;83.40
81902;DHT22;71369;50.796;3.290;2023-07-31T01:44:29;17.90;83.60
81902;DHT22;71369;50.796;3.290;2023-07-31T01:46:55;17.90;84.00
81902;DHT22;71369;50.796;3.290;2023-07-31T01:49:20;17.90;84.20
81902;DHT22;71369;50.796;3.290;2023-07-31T01:51:46;17.90;84.60
81902;DHT22;71369;50.796;3.290;2023-07-31T01:54:12;17.70;85.00
81902;DHT22;71369;50.796;3.290;2023-07-31T01:56:37;17.70;85.80
81902;DHT22;71369;50.796;3.290;2023-07-31T01:59:03;17.70;86.00
81902;DHT22;71369;50.796;3.290;2023-07-31T02:01:29;17.80;85.80
81902;DHT22;71369;50.796;3.290;2023-07-31T02:03:54;17.80;85.90
81902;DHT22;71369;50.796;3.290;2023-07-31T02:06:20;17.80;86.10
81902;DHT22;71369;50.796;3.290;2023-07-31T02:08:46;17.80;86.00
81902;DHT22;71369;50.796;3.290;2023-07-31T02:11:11;17.80;86.20
81902;DHT22;71369;50.796;3.290;2023-07-31T02:13:37;17.80;86.40
81902;DHT22;71369;50.796;3.290;2023-07-31T02:16:03;17.80;86.40
81902;DHT22;71369;50.796;3.290;2023-07-31T02:18:29;17.80;86.40
81902;DHT22;71369;50.796;3.290;2023-07-31T02:20:54;17.70;86.60
81902;DHT22;71369;50.796;3.290;2023-07-31T02:23:20;17.70;87.10
81902;DHT22;71369;50.796;3.290;2023-07-31T02:25:46;17.80;87.10
81902;DHT22;71369;50.796;3.290;2023-07-31T02:28:12;17.80;86.90
81902;DHT22;71369;50.796;3.290;2023-07-31T02:30:38;17.80;87.10
81902;DHT22;71369;50.796;3.290;2023-07-31T02:33:05;17.70;87.00
81902;DHT22;71369;50.796;3.290;2023-07-31T02:35:31;17.80;87.30
81902;DHT22;71369;50.796;3.290;2023-07-31T02:37:56;17.70;87.40
81902;DHT22;71369;50.796;3.290;2023-07-31T02:40:22;17.70;88.00
81902;DHT22;71369;50.796;3.290;2023-07-31T02:42:48;17.70;88.40
81902;DHT22;71369;50.796;3.290;2023-07-31T02:45:14;17.60;89.50
81902;DHT22;71369;50.796;3.290;2023-07-31T02:47:40;17.60;89.90
81902;DHT22;71369;50.796;3.290;2023-07-31T02:50:06;17.40;90.20
81902;DHT22;71369;50.796;3.290;2023-07-31T02:52:31;17.40;90.50
81902;DHT22;71369;50.796;3.290;2023-07-31T02:54:58;17.40;90.50
81902;DHT22;71369;50.796;3.290;2023-07-31T02:57:24;17.40;90.60
81902;DHT22;71369;50.796;3.290;2023-07-31T02:59:49;17.30;90.50
81902;DHT22;71369;50.796;3.290;2023-07-31T03:02:15;17.30;90.80
81902;DHT22;71369;50.796;3.290;2023-07-31T03:04:41;17.30;90.70
81902;DHT22;71369;50.796;3.290;2023-07-31T03:07:07;17.20;90.90
81902;DHT22;71369;50.796;3.290;2023-07-31T03:09:32;17.20;90.80
81902;DHT22;71369;50.796;3.290;2023-07-31T03:11:58;17.20;91.00
81902;DHT22;71369;50.796;3.290;2023-07-31T03:14:24;17.10;91.20
81902;DHT22;71369;50.796;3.290;2023-07-31T03:16:52;17.10;91.30
81902;DHT22;71369;50.796;3.290;2023-07-31T03:19:17;17.20;91.70
81902;DHT22;71369;50.796;3.290;2023-07-31T03:21:43;17.20;91.50
81902;DHT22;71369;50.796;3.290;2023-07-31T03:24:09;17.10;91.30
81902;DHT22;71369;50.796;3.290;2023-07-31T03:26:35;17.10;91.50
81902;DHT22;71369;50.796;3.290;2023-07-31T03:29:02;17.00;91.80
81902;DHT22;71369;50.796;3.290;2023-07-31T03:31:27;16.90;91.70
81902;DHT22;71369;50.796;3.290;2023-07-31T03:33:53;16.90;91.60
81902;DHT22;71369;50.796;3.290;2023-07-31T03:36:19;16.90;91.60
81902;DHT22;71369;50.796;3.290;2023-07-31T03:38:45;16.90;91.40
81902;DHT22;71369;50.796;3.290;2023-07-31T03:41:11;17.00;91.50
81902;DHT22;71369;50.796;3.290;2023-07-31T03:43:37;17.00;91.60
81902;DHT22;71369;50.796;3.290;2023-07-31T03:46:02;17.00;91.50
81902;DHT22;71369;50.796;3.290;2023-07-31T03:48:28;17.00;91.50
81902;DHT22;71369;50.796;3.290;2023-07-31T03:50:54;17.00;91.70
81902;DHT22;71369;50.796;3.290;2023-07-31T03:53:20;16.90;91.80
81902;DHT22;71369;50.796;3.290;2023-07-31T03:55:46;16.90;91.80
81902;DHT22;71369;50.796;3.290;2023-07-31T03:58:11;17.00;91.90
81902;DHT22;71369;50.796;3.290;2023-07-31T04:00:37;17.00;92.00
81902;DHT22;71369;50.796;3.290;2023-07-31T04:03:03;17.00;92.00
81902;DHT22;71369;50.796;3.290;2023-07-31T04:05:32;16.90;92.20
81902;DHT22;71369;50.796;3.290;2023-07-31T04:07:58;17.00;92.10
81902;DHT22;71369;50.796;3.290;2023-07-31T04:10:24;17.00;92.00
81902;DHT22;71369;50.796;3.290;2023-07-31T04:12:49;17.00;92.00
81902;DHT22;71369;50.796;3.290;2023-07-31T04:15:15;17.00;92.00
81902;DHT22;71369;50.796;3.290;2023-07-31T04:17:41;17.10;92.00
81902;DHT22;71369;50.796;3.290;2023-07-31T04:20:07;17.20;91.80
81902;DHT22;71369;50.796;3.290;2023-07-31T04:22:33;17.20;92.00
81902;DHT22;71369;50.796;3.290;2023-07-31T04:24:58;17.10;91.90
81902;DHT22;71369;50.796;3.290;2023-07-31T04:27:25;17.10;91.80
81902;DHT22;71369;50.796;3.290;2023-07-31T04:29:51;17.10;91.80
81902;DHT22;71369;50.796;3.290;2023-07-31T04:32:16;17.00;91.90
81902;DHT22;71369;50.796;3.290;2023-07-31T04:34:43;17.00;92.00
81902;DHT22;71369;50.796;3.290;2023-07-31T04:37:09;17.10;91.60
81902;DHT22;71369;50.796;3.290;2023-07-31T04:39:34;17.10;91.40
81902;DHT22;71369;50.796;3.290;2023-07-31T04:42:00;17.10;91.50
81902;DHT22;71369;50.796;3.290;2023-07-31T04:44:26;17.10;91.90
81902;DHT22;71369;50.796;3.290;2023-07-31T04:46:52;17.00;91.40
81902;DHT22;71369;50.796;3.290;2023-07-31T04:49:17;17.00;91.50
81902;DHT22;71369;50.796;3.290;2023-07-31T04:51:44;17.00;91.60
81902;DHT22;71369;50.796;3.290;2023-07-31T04:54:10;17.00;91.20
81902;DHT22;71369;50.796;3.290;2023-07-31T04:56:38;17.00;91.40
81902;DHT22;71369;50.796;3.290;2023-07-31T04:59:04;17.00;91.20
81902;DHT22;71369;50.796;3.290;2023-07-31T05:01:29;17.00;91.10
81902;DHT22;71369;50.796;3.290;2023-07-31T05:03:55;17.10;91.60
81902;DHT22;71369;50.796;3.290;2023-07-31T05:06:21;17.00;91.20
81902;DHT22;71369;50.796;3.290;2023-07-31T05:08:47;17.10;90.70
81902;DHT22;71369;50.796;3.290;2023-07-31T05:11:13;17.10;90.80
81902;DHT22;71369;50.796;3.290;2023-07-31T05:13:39;17.10;90.80
81902;DHT22;71369;50.796;3.290;2023-07-31T05:16:05;17.10;90.80
81902;DHT22;71369;50.796;3.290;2023-07-31T05:18:30;17.10;90.60
81902;DHT22;71369;50.796;3.290;2023-07-31T05:20:56;17.20;90.50
81902;DHT22;71369;50.796;3.290;2023-07-31T05:23:22;17.20;90.20
81902;DHT22;71369;50.796;3.290;2023-07-31T05:25:47;17.20;90.30
81902;DHT22;71369;50.796;3.290;2023-07-31T05:28:13;17.20;90.10
81902;DHT22;71369;50.796;3.290;2023-07-31T05:30:39;17.20;90.20
81902;DHT22;71369;50.796;3.290;2023-07-31T05:33:04;17.20;89.80
81902;DHT22;71369;50.796;3.290;2023-07-31T05:35:30;17.20;90.00
81902;DHT22;71369;50.796;3.290;2023-07-31T05:37:56;17.20;90.20
81902;DHT22;71369;50.796;3.290;2023-07-31T05:40:22;17.20;89.30
81902;DHT22;71369;50.796;3.290;2023-07-31T05:42:47;17.20;88.90
81902;DHT22;71369;50.796;3.290;2023-07-31T05:45:13;17.30;88.40
81902;DHT22;71369;50.796;3.290;2023-07-31T05:47:39;17.30;88.90
81902;DHT22;71369;50.796;3.290;2023-07-31T05:50:05;17.30;88.40
81902;DHT22;71369;50.796;3.290;2023-07-31T05:52:31;17.30;88.30
81902;DHT22;71369;50.796;3.290;2023-07-31T05:54:57;17.30;88.10
81902;DHT22;71369;50.796;3.290;2023-07-31T05:57:22;17.50;87.60
81902;DHT22;71369;50.796;3.290;2023-07-31T05:59:48;17.60;87.40
81902;DHT22;71369;50.796;3.290;2023-07-31T06:02:14;17.60;88.00
81902;DHT22;71369;50.796;3.290;2023-07-31T06:04:40;17.60;86.60
81902;DHT22;71369;50.796;3.290;2023-07-31T06:07:06;17.70;86.70
81902;DHT22;71369;50.796;3.290;2023-07-31T06:09:32;17.80;85.80
81902;DHT22;71369;50.796;3.290;2023-07-31T06:11:57;17.80;86.00
81902;DHT22;71369;50.796;3.290;2023-07-31T06:14:23;17.80;85.70
81902;DHT22;71369;50.796;3.290;2023-07-31T06:16:49;17.80;85.80
81902;DHT22;71369;50.796;3.290;2023-07-31T06:19:14;17.80;86.20
81902;DHT22;71369;50.796;3.290;2023-07-31T06:21:40;18.00;85.70
81902;DHT22;71369;50.796;3.290;2023-07-31T06:24:08;18.20;84.40
81902;DHT22;71369;50.796;3.290;2023-07-31T06:26:34;18.30;82.90
81902;DHT22;71369;50.796;3.290;2023-07-31T06:29:00;18.30;83.30
81902;DHT22;71369;50.796;3.290;2023-07-31T06:31:25;18.20;83.20
81902;DHT22;71369;50.796;3.290;2023-07-31T06:33:52;18.20;83.00
81902;DHT22;71369;50.796;3.290;2023-07-31T06:36:18;18.20;83.60
81902;DHT22;71369;50.796;3.290;2023-07-31T06:38:44;18.20;82.40
81902;DHT22;71369;50.796;3.290;2023-07-31T06:41:09;18.30;82.90
81902;DHT22;71369;50.796;3.290;2023-07-31T06:43:36;18.20;83.10
81902;DHT22;71369;50.796;3.290;2023-07-31T06:46:06;18.20;82.70
81902;DHT22;71369;50.796;3.290;2023-07-31T06:48:34;18.30;82.70
81902;DHT22;71369;50.796;3.290;2023-07-31T06:51:03;18.30;82.50
81902;DHT22;71369;50.796;3.290;2023-07-31T06:53:29;18.30;81.60
81902;DHT22;71369;50.796;3.290;2023-07-31T06:55:55;18.30;82.30
81902;DHT22;71369;50.796;3.290;2023-07-31T06:58:21;18.40;81.30
81902;DHT22;71369;50.796;3.290;2023-07-31T07:00:46;18.50;81.40
81902;DHT22;71369;50.796;3.290;2023-07-31T07:03:14;18.50;81.60
81902;DHT22;71369;50.796;3.290;2023-07-31T07:05:40;18.40;81.70
81902;DHT22;71369;50.796;3.290;2023-07-31T07:08:06;18.50;81.50
81902;DHT22;71369;50.796;3.290;2023-07-31T07:10:31;18.60;80.80
81902;DHT22;71369;50.796;3.290;2023-07-31T07:12:57;18.60;80.50
81902;DHT22;71369;50.796;3.290;2023-07-31T07:15:23;18.50;81.60
81902;DHT22;71369;50.796;3.290;2023-07-31T07:17:48;18.50;81.80
81902;DHT22;71369;50.796;3.290;2023-07-31T07:20:15;18.50;82.00
81902;DHT22;71369;50.796;3.290;2023-07-31T07:22:40;18.50;81.70
81902;DHT22;71369;50.796;3.290;2023-07-31T07:25:08;18.50;82.30
81902;DHT22;71369;50.796;3.290;2023-07-31T07:27:37;18.60;81.80
81902;DHT22;71369;50.796;3.290;2023-07-31T07:30:03;18.70;81.90
81902;DHT22;71369;50.796;3.290;2023-07-31T07:32:29;18.80;81.00
81902;DHT22;71369;50.796;3.290;2023-07-31T07:34:55;19.10;79.50
81902;DHT22;71369;50.796;3.290;2023-07-31T07:37:21;19.20;79.30
81902;DHT22;71369;50.796;3.290;2023-07-31T07:39:47;19.30;79.20
81902;DHT22;71369;50.796;3.290;2023-07-31T07:42:13;19.40;78.50
81902;DHT22;71369;50.796;3.290;2023-07-31T07:44:39;19.40;78.40
81902;DHT22;71369;50.796;3.290;2023-07-31T07:47:04;19.30;78.70
81902;DHT22;71369;50.796;3.290;2023-07-31T07:49:33;19.40;79.10
81902;DHT22;71369;50.796;3.290;2023-07-31T07:51:59;19.30;79.40
81902;DHT22;71369;50.796;3.290;2023-07-31T07:54:24;19.20;79.80
81902;DHT22;71369;50.796;3.290;2023-07-31T07:56:50;19.30;79.80
81902;DHT22;71369;50.796;3.290;2023-07-31T07:59:16;19.50;78.90
81902;DHT22;71369;50.796;3.290;2023-07-31T08:01:41;19.60;78.30
81902;DHT22;71369;50.796;3.290;2023-07-31T08:04:07;19.80;77.60
81902;DHT22;71369;50.796;3.290;2023-07-31T08:06:33;19.90;78.00
81902;DHT22;71369;50.796;3.290;2023-07-31T08:08:59;20.10;77.30
81902;DHT22;71369;50.796;3.290;2023-07-31T08:11:25;20.20;76.50
81902;DHT22;71369;50.796;3.290;2023-07-31T08:13:51;20.20;76.80
81902;DHT22;71369;50.796;3.290;2023-07-31T08:16:16;20.20;77.50
81902;DHT22;71369;50.796;3.290;2023-07-31T08:18:42;20.20;76.90
81902;DHT22;71369;50.796;3.290;2023-07-31T08:21:08;20.20;76.80
81902;DHT22;71369;50.796;3.290;2023-07-31T08:23:34;20.10;78.00
81902;DHT22;71369;50.796;3.290;2023-07-31T08:26:00;20.30;77.00
81902;DHT22;71369;50.796;3.290;2023-07-31T08:28:25;20.50;76.30
81902;DHT22;71369;50.796;3.290;2023-07-31T08:30:51;20.50;76.30
81902;DHT22;71369;50.796;3.290;2023-07-31T08:33:17;20.80;76.70
81902;DHT22;71369;50.796;3.290;2023-07-31T08:35:43;21.10;74.80
81902;DHT22;71369;50.796;3.290;2023-07-31T08:38:08;21.00;74.60
81902;DHT22;71369;50.796;3.290;2023-07-31T08:40:37;21.00;73.90
81902;DHT22;71369;50.796;3.290;2023-07-31T08:43:06;20.90;74.40
81902;DHT22;71369;50.796;3.290;2023-07-31T08:45:32;20.80;75.40
81902;DHT22;71369;50.796;3.290;2023-07-31T08:47:59;20.70;75.40
81902;DHT22;71369;50.796;3.290;2023-07-31T08:50:25;20.50;76.90
81902;DHT22;71369;50.796;3.290;2023-07-31T08:52:51;20.30;77.50
81902;DHT22;71369;50.796;3.290;2023-07-31T08:55:18;20.20;77.90
81902;DHT22;71369;50.796;3.290;2023-07-31T08:57:49;20.20;78.70
81902;DHT22;71369;50.796;3.290;2023-07-31T09:00:16;20.40;78.50
81902;DHT22;71369;50.796;3.290;2023-07-31T09:02:46;20.60;78.20
81902;DHT22;71369;50.796;3.290;2023-07-31T09:05:14;20.70;77.40
81902;DHT22;71369;50.796;3.290;2023-07-31T09:07:43;20.80;76.70
81902;DHT22;71369;50.796;3.290;2023-07-31T09:10:11;20.90;76.00
81902;DHT22;71369;50.796;3.290;2023-07-31T09:12:38;20.70;76.90
81902;DHT22;71369;50.796;3.290;2023-07-31T09:15:05;20.50;76.70
81902;DHT22;71369;50.796;3.290;2023-07-31T09:17:32;20.40;78.20
81902;DHT22;71369;50.796;3.290;2023-07-31T09:20:16;20.50;77.70
81902;DHT22;71369;50.796;3.290;2023-07-31T09:22:42;20.30;78.70
81902;DHT22;71369;50.796;3.290;2023-07-31T09:25:35;20.40;78.50
81902;DHT22;71369;50.796;3.290;2023-07-31T09:28:03;20.40;77.80
81902;DHT22;71369;50.796;3.290;2023-07-31T09:30:29;20.50;78.40
81902;DHT22;71369;50.796;3.290;2023-07-31T09:33:04;20.60;77.90
81902;DHT22;71369;50.796;3.290;2023-07-31T09:35:34;21.00;77.10
81902;DHT22;71369;50.796;3.290;2023-07-31T09:38:05;21.10;75.90
81902;DHT22;71369;50.796;3.290;2023-07-31T09:40:38;21.10;75.40
81902;DHT22;71369;50.796;3.290;2023-07-31T09:43:06;21.00;76.20
81902;DHT22;71369;50.796;3.290;2023-07-31T09:45:35;21.00;76.70
81902;DHT22;71369;50.796;3.290;2023-07-31T09:48:17;21.10;75.60
81902;DHT22;71369;50.796;3.290;2023-07-31T09:50:48;21.30;75.00
81902;DHT22;71369;50.796;3.290;2023-07-31T09:53:15;21.20;74.10
81902;DHT22;71369;50.796;3.290;2023-07-31T09:55:42;21.00;75.10
81902;DHT22;71369;50.796;3.290;2023-07-31T09:58:10;20.90;75.90
81902;DHT22;71369;50.796;3.290;2023-07-31T10:00:37;21.00;76.00
81902;DHT22;71369;50.796;3.290;2023-07-31T10:03:07;21.30;75.70
81902;DHT22;71369;50.796;3.290;2023-07-31T10:05:45;21.40;74.50
81902;DHT22;71369;50.796;3.290;2023-07-31T10:08:14;21.20;74.30
81902;DHT22;71369;50.796;3.290;2023-07-31T10:10:42;21.20;74.70
81902;DHT22;71369;50.796;3.290;2023-07-31T10:13:10;21.30;74.50
81902;DHT22;71369;50.796;3.290;2023-07-31T10:15:36;21.70;74.60
81902;DHT22;71369;50.796;3.290;2023-07-31T10:18:02;21.90;72.70
81902;DHT22;71369;50.796;3.290;2023-07-31T10:20:31;21.80;71.60
81902;DHT22;71369;50.796;3.290;2023-07-31T10:22:58;21.80;72.40
81902;DHT22;71369;50.796;3.290;2023-07-31T10:25:26;21.70;72.70
81902;DHT22;71369;50.796;3.290;2023-07-31T10:27:53;21.60;72.90
81902;DHT22;71369;50.796;3.290;2023-07-31T10:30:23;21.60;72.80
81902;DHT22;71369;50.796;3.290;2023-07-31T10:32:51;21.60;73.70
81902;DHT22;71369;50.796;3.290;2023-07-31T10:35:27;21.40;74.50
81902;DHT22;71369;50.796;3.290;2023-07-31T10:37:53;21.40;73.90
81902;DHT22;71369;50.796;3.290;2023-07-31T10:40:25;21.20;75.00
81902;DHT22;71369;50.796;3.290;2023-07-31T10:42:57;21.10;74.90
81902;DHT22;71369;50.796;3.290;2023-07-31T10:45:32;21.10;75.30
81902;DHT22;71369;50.796;3.290;2023-07-31T10:48:06;21.10;74.20
81902;DHT22;71369;50.796;3.290;2023-07-31T10:50:55;21.10;74.50
81902;DHT22;71369;50.796;3.290;2023-07-31T10:53:32;21.20;74.70
81902;DHT22;71369;50.796;3.290;2023-07-31T10:56:05;21.20;74.80
81902;DHT22;71369;50.796;3.290;2023-07-31T10:58:33;21.10;74.80
81902;DHT22;71369;50.796;3.290;2023-07-31T11:01:03;21.10;75.00
81902;DHT22;71369;50.796;3.290;2023-07-31T11:03:49;21.10;74.40
81902;DHT22;71369;50.796;3.290;2023-07-31T11:06:17;21.20;74.80
81902;DHT22;71369;50.796;3.290;2023-07-31T11:08:48;21.20;74.10
81902;DHT22;71369;50.796;3.290;2023-07-31T11:11:16;21.30;74.50
81902;DHT22;71369;50.796;3.290;2023-07-31T11:13:46;21.30;74.10
81902;DHT22;71369;50.796;3.290;2023-07-31T11:16:16;21.40;73.20
81902;DHT22;71369;50.796;3.290;2023-07-31T11:18:46;21.40;74.00
81902;DHT22;71369;50.796;3.290;2023-07-31T11:23:51;21.40;73.10
81902;DHT22;71369;50.796;3.290;2023-07-31T11:26:18;21.30;73.80
81902;DHT22;71369;50.796;3.290;2023-07-31T11:28:47;21.30;73.90
81902;DHT22;71369;50.796;3.290;2023-07-31T11:31:14;21.40;73.70
81902;DHT22;71369;50.796;3.290;2023-07-31T11:33:40;21.30;73.20
81902;DHT22;71369;50.796;3.290;2023-07-31T11:36:06;21.30;74.20
81902;DHT22;71369;50.796;3.290;2023-07-31T11:38:33;21.30;74.80
81902;DHT22;71369;50.796;3.290;2023-07-31T11:41:02;21.20;73.40
81902;DHT22;71369;50.796;3.290;2023-07-31T11:43:29;21.20;73.30
81902;DHT22;71369;50.796;3.290;2023-07-31T11:45:57;21.10;73.70
81902;DHT22;71369;50.796;3.290;2023-07-31T11:48:36;21.00;75.00
81902;DHT22;71369;50.796;3.290;2023-07-31T11:51:07;20.90;75.20
81902;DHT22;71369;50.796;3.290;2023-07-31T11:53:49;20.90;74.90
81902;DHT22;71369;50.796;3.290;2023-07-31T11:56:20;20.90;75.50
81902;DHT22;71369;50.796;3.290;2023-07-31T11:58:47;20.90;75.50
81902;DHT22;71369;50.796;3.290;2023-07-31T12:01:15;20.90;77.20
81902;DHT22;71369;50.796;3.290;2023-07-31T12:03:43;20.70;79.60
81902;DHT22;71369;50.796;3.290;2023-07-31T12:06:09;20.60;79.60
81902;DHT22;71369;50.796;3.290;2023-07-31T12:08:36;20.30;80.50
81902;DHT22;71369;50.796;3.290;2023-07-31T12:11:07;20.00;82.40
81902;DHT22;71369;50.796;3.290;2023-07-31T12:13:33;19.70;84.60
81902;DHT22;71369;50.796;3.290;2023-07-31T12:16:01;19.60;86.60
81902;DHT22;71369;50.796;3.290;2023-07-31T12:18:31;19.40;87.20
81902;DHT22;71369;50.796;3.290;2023-07-31T12:21:00;19.20;88.50
81902;DHT22;71369;50.796;3.290;2023-07-31T12:28:36;18.90;90.40
81902;DHT22;71369;50.796;3.290;2023-07-31T12:31:02;18.70;91.10
81902;DHT22;71369;50.796;3.290;2023-07-31T12:33:33;18.60;91.00
81902;DHT22;71369;50.796;3.290;2023-07-31T12:36:01;18.60;91.40
81902;DHT22;71369;50.796;3.290;2023-07-31T12:38:27;18.60;91.30
81902;DHT22;71369;50.796;3.290;2023-07-31T12:40:54;18.50;91.90
81902;DHT22;71369;50.796;3.290;2023-07-31T12:43:19;18.60;91.90
81902;DHT22;71369;50.796;3.290;2023-07-31T12:45:45;18.60;92.00
81902;DHT22;71369;50.796;3.290;2023-07-31T12:48:13;18.60;91.50
81902;DHT22;71369;50.796;3.290;2023-07-31T12:50:39;18.60;91.90
81902;DHT22;71369;50.796;3.290;2023-07-31T12:53:05;18.60;92.00
81902;DHT22;71369;50.796;3.290;2023-07-31T12:55:34;18.60;91.90
81902;DHT22;71369;50.796;3.290;2023-07-31T12:58:02;18.60;91.70
81902;DHT22;71369;50.796;3.290;2023-07-31T13:00:28;18.50;92.10
81902;DHT22;71369;50.796;3.290;2023-07-31T13:02:54;18.60;92.00
81902;DHT22;71369;50.796;3.290;2023-07-31T13:05:20;18.70;92.10
81902;DHT22;71369;50.796;3.290;2023-07-31T13:07:47;18.70;91.90
81902;DHT22;71369;50.796;3.290;2023-07-31T13:10:13;18.80;91.80
81902;DHT22;71369;50.796;3.290;2023-07-31T13:12:39;18.80;92.00
81902;DHT22;71369;50.796;3.290;2023-07-31T13:15:05;18.80;91.90
81902;DHT22;71369;50.796;3.290;2023-07-31T13:17:31;18.90;92.10
81902;DHT22;71369;50.796;3.290;2023-07-31T13:19:57;18.90;92.10
81902;DHT22;71369;50.796;3.290;2023-07-31T13:22:23;18.90;92.10
81902;DHT22;71369;50.796;3.290;2023-07-31T13:24:49;18.90;91.70
81902;DHT22;71369;50.796;3.290;2023-07-31T13:27:15;18.80;91.70
81902;DHT22;71369;50.796;3.290;2023-07-31T13:29:46;18.90;91.70
81902;DHT22;71369;50.796;3.290;2023-07-31T13:32:12;18.90;91.80
81902;DHT22;71369;50.796;3.290;2023-07-31T13:34:37;18.90;91.80
81902;DHT22;71369;50.796;3.290;2023-07-31T13:37:04;18.90;91.80
81902;DHT22;71369;50.796;3.290;2023-07-31T13:39:34;19.00;91.90
81902;DHT22;71369;50.796;3.290;2023-07-31T13:42:00;18.90;91.30
81902;DHT22;71369;50.796;3.290;2023-07-31T13:44:26;18.70;92.30
81902;DHT22;71369;50.796;3.290;2023-07-31T13:46:52;18.60;92.30
81902;DHT22;71369;50.796;3.290;2023-07-31T13:49:18;18.50;92.70
81902;DHT22;71369;50.796;3.290;2023-07-31T13:51:44;18.70;92.70
81902;DHT22;71369;50.796;3.290;2023-07-31T13:54:10;18.70;92.50
81902;DHT22;71369;50.796;3.290;2023-07-31T13:56:37;18.80;92.10
81902;DHT22;71369;50.796;3.290;2023-07-31T13:59:03;18.90;92.00
81902;DHT22;71369;50.796;3.290;2023-07-31T14:01:29;19.00;92.30
81902;DHT22;71369;50.796;3.290;2023-07-31T14:03:56;19.00;91.30
81902;DHT22;71369;50.796;3.290;2023-07-31T14:06:22;18.90;91.70
81902;DHT22;71369;50.796;3.290;2023-07-31T14:08:48;18.80;91.80
81902;DHT22;71369;50.796;3.290;2023-07-31T14:11:13;18.80;92.00
81902;DHT22;71369;50.796;3.290;2023-07-31T14:13:39;18.80;92.30
81902;DHT22;71369;50.796;3.290;2023-07-31T14:16:05;18.70;92.20
81902;DHT22;71369;50.796;3.290;2023-07-31T14:18:32;18.70;92.10
81902;DHT22;71369;50.796;3.290;2023-07-31T14:20:58;18.70;92.30
81902;DHT22;71369;50.796;3.290;2023-07-31T14:23:26;18.80;92.20
81902;DHT22;71369;50.796;3.290;2023-07-31T14:25:52;18.80;91.70
81902;DHT22;71369;50.796;3.290;2023-07-31T14:28:18;18.80;91.80
81902;DHT22;71369;50.796;3.290;2023-07-31T14:30:44;18.80;92.00
81902;DHT22;71369;50.796;3.290;2023-07-31T14:33:09;18.80;92.10
81902;DHT22;71369;50.796;3.290;2023-07-31T14:35:36;18.70;92.00
81902;DHT22;71369;50.796;3.290;2023-07-31T14:38:02;18.70;92.40
81902;DHT22;71369;50.796;3.290;2023-07-31T14:40:29;18.80;93.00
81902;DHT22;71369;50.796;3.290;2023-07-31T14:42:54;18.80;92.30
81902;DHT22;71369;50.796;3.290;2023-07-31T14:45:20;18.70;92.40
81902;DHT22;71369;50.796;3.290;2023-07-31T14:47:48;18.70;92.60
81902;DHT22;71369;50.796;3.290;2023-07-31T14:50:17;18.70;92.60
81902;DHT22;71369;50.796;3.290;2023-07-31T14:52:47;18.70;92.40
81902;DHT22;71369;50.796;3.290;2023-07-31T14:55:37;18.60;92.60
81902;DHT22;71369;50.796;3.290;2023-07-31T14:58:04;18.60;92.60
81902;DHT22;71369;50.796;3.290;2023-07-31T15:00:29;18.60;92.70
81902;DHT22;71369;50.796;3.290;2023-07-31T15:02:55;18.60;92.90
81902;DHT22;71369;50.796;3.290;2023-07-31T15:05:21;18.60;92.80
81902;DHT22;71369;50.796;3.290;2023-07-31T15:07:47;18.60;92.70
81902;DHT22;71369;50.796;3.290;2023-07-31T15:10:12;18.60;92.60
81902;DHT22;71369;50.796;3.290;2023-07-31T15:12:43;18.60;92.70
81902;DHT22;71369;50.796;3.290;2023-07-31T15:15:09;18.70;92.80
81902;DHT22;71369;50.796;3.290;2023-07-31T15:17:35;18.80;92.50
81902;DHT22;71369;50.796;3.290;2023-07-31T15:20:00;18.80;92.40
81902;DHT22;71369;50.796;3.290;2023-07-31T15:22:26;18.70;92.60
81902;DHT22;71369;50.796;3.290;2023-07-31T15:24:52;18.70;92.70
81902;DHT22;71369;50.796;3.290;2023-07-31T15:27:21;18.60;92.60
81902;DHT22;71369;50.796;3.290;2023-07-31T15:29:49;18.70;92.60
81902;DHT22;71369;50.796;3.290;2023-07-31T15:32:16;18.60;93.00
81902;DHT22;71369;50.796;3.290;2023-07-31T15:34:43;18.60;93.00
81902;DHT22;71369;50.796;3.290;2023-07-31T15:37:09;18.60;93.00
81902;DHT22;71369;50.796;3.290;2023-07-31T15:39:35;18.60;93.00
81902;DHT22;71369;50.796;3.290;2023-07-31T15:42:00;18.70;93.00
81902;DHT22;71369;50.796;3.290;2023-07-31T15:44:26;18.70;93.00